Time;durP1;ratioP1;P1;durP2;ratioP2;P2;SDS_P1;SDS_P2;PMS_P1;PMS_P2;Temp;Humidity;BMP_temperature;BMP_pressure;BME280_temperature;BME280_humidity;BME280_pressure;Samples;Min_cycle;Max_cycle;Signal;HPM_P1;HPM_P2
2022/01/13 00:00:33;;;;;;;32.27;21.20;;;;;;;-2.05;100.00;150849.19;4994146;28;20441;-81
2022/01/13 00:03:09;;;;;;;31.57;20.70;;;;;;;-1.99;100.00;150864.56;4993315;28;20507;-81
2022/01/13 00:05:45;;;;;;;28.73;19.93;;;;;;;-1.97;100.00;150869.69;4993210;28;20429;-81
2022/01/13 00:08:20;;;;;;;29.50;21.70;;;;;;;-1.88;100.00;150892.75;4983614;28;20485;-81
2022/01/13 00:10:57;;;;;;;29.67;20.70;;;;;;;-1.85;100.00;150901.69;4996352;28;20446;-81
2022/01/13 00:13:46;;;;;;;29.53;20.57;;;;;;;-1.81;100.00;150909.38;5007146;28;20537;-81
2022/01/13 00:16:36;;;;;;;29.57;20.13;;;;;;;-1.92;100.00;150882.50;4978045;28;20469;-81
2022/01/13 00:19:31;;;;;;;30.67;20.30;;;;;;;-1.95;100.00;150876.09;4993562;28;20445;-81
2022/01/13 00:22:18;;;;;;;29.97;19.30;;;;;;;-1.94;100.00;150877.38;4993945;28;20533;-81
2022/01/13 00:24:57;;;;;;;32.70;20.70;;;;;;;-1.94;100.00;150877.38;4993385;28;20450;-81
2022/01/13 00:27:35;;;;;;;35.60;21.57;;;;;;;-1.93;100.00;150879.91;4988059;28;20465;-81
2022/01/13 00:30:16;;;;;;;29.43;21.50;;;;;;;-1.91;100.00;150886.31;4978316;28;20712;-81
2022/01/13 00:32:53;;;;;;;34.20;20.77;;;;;;;-1.90;100.00;150887.59;4993116;28;20995;-81
2022/01/13 00:35:29;;;;;;;33.03;21.60;;;;;;;-1.86;100.00;150897.88;4977775;28;20462;-81
2022/01/13 00:38:04;;;;;;;32.00;22.47;;;;;;;-1.82;100.00;150908.09;4992904;28;20474;-81
2022/01/13 00:40:40;;;;;;;32.07;20.43;;;;;;;-1.80;100.00;150913.22;4992415;28;20454;-81
2022/01/13 00:43:16;;;;;;;33.43;22.30;;;;;;;-1.70;100.00;150937.59;4993813;28;20442;-81
2022/01/13 00:45:51;;;;;;;30.83;22.33;;;;;;;-1.75;99.94;150924.78;4978613;28;20473;-81
2022/01/13 00:48:28;;;;;;;32.27;22.43;;;;;;;-1.76;100.00;150923.47;4994479;28;20471;-81
2022/01/13 00:51:04;;;;;;;32.50;22.20;;;;;;;-1.74;99.84;150928.59;4974020;28;20519;-81
2022/01/13 00:53:40;;;;;;;35.73;23.30;;;;;;;-1.74;100.00;150928.59;4972919;28;20438;-81
2022/01/13 00:56:15;;;;;;;33.53;22.90;;;;;;;-1.73;100.00;150929.88;4974758;28;20827;-81
2022/01/13 00:58:51;;;;;;;33.00;21.50;;;;;;;-1.70;100.00;150937.59;4957886;28;20516;-81
2022/01/13 01:01:26;;;;;;;34.57;24.57;;;;;;;-1.74;100.00;150928.59;4993447;28;20485;-82
2022/01/13 01:04:04;;;;;;;33.30;23.10;;;;;;;-1.72;100.00;150933.72;4992611;28;20958;-81
2022/01/13 01:06:40;;;;;;;32.03;22.17;;;;;;;-1.72;100.00;150932.47;4960966;28;20798;-81
2022/01/13 01:09:21;;;;;;;33.23;24.50;;;;;;;-1.70;100.00;150938.88;4984529;28;20448;-82
2022/01/13 01:11:57;;;;;;;36.83;23.90;;;;;;;-1.66;100.00;150949.09;4977158;28;20434;-81
2022/01/13 01:14:36;;;;;;;32.50;21.43;;;;;;;-1.63;100.00;150956.78;4976996;28;20518;-81
2022/01/13 01:17:14;;;;;;;35.77;23.97;;;;;;;-1.59;100.00;150965.78;4991471;28;20569;-81
2022/01/13 01:19:51;;;;;;;34.93;22.47;;;;;;;-1.54;100.00;150979.88;4992994;28;20476;-82
2022/01/13 01:22:41;;;;;;;33.87;23.10;;;;;;;-1.52;100.00;150985.00;5000643;28;20450;-81
2022/01/13 01:25:36;;;;;;;32.10;22.80;;;;;;;-1.49;100.00;150992.69;4989339;28;20933;-81
2022/01/13 01:28:18;;;;;;;38.07;24.20;;;;;;;-1.46;100.00;150999.09;4991994;28;20469;-81
2022/01/13 01:30:55;;;;;;;35.87;23.80;;;;;;;-1.40;100.00;151015.72;4991977;28;20426;-81
2022/01/13 01:33:30;;;;;;;35.53;23.03;;;;;;;-1.42;100.00;151010.63;4991986;28;20469;-81
2022/01/13 01:36:12;;;;;;;32.80;22.60;;;;;;;-1.42;100.00;151010.63;4982003;28;20463;-81
2022/01/13 01:38:52;;;;;;;33.70;22.83;;;;;;;-1.40;100.00;151015.72;4975315;28;20973;-81
2022/01/13 01:41:28;;;;;;;34.50;22.03;;;;;;;-1.40;100.00;151014.44;5006610;28;20959;-81
2022/01/13 01:44:06;;;;;;;28.93;21.60;;;;;;;-1.35;100.00;151028.53;4993254;28;20437;-82
2022/01/13 01:46:45;;;;;;;30.67;22.27;;;;;;;-1.38;100.00;151020.84;4991764;28;20446;-81
2022/01/13 01:49:23;;;;;;;31.63;21.80;;;;;;;-1.38;100.00;151020.84;4991423;28;20531;-81
2022/01/13 01:52:02;;;;;;;34.03;23.43;;;;;;;-1.37;100.00;151023.44;4991291;28;20468;-81
2022/01/13 01:54:38;;;;;;;34.17;22.90;;;;;;;-1.32;100.00;151036.22;4991261;28;20449;-81
2022/01/13 01:57:14;;;;;;;31.70;21.63;;;;;;;-1.32;100.00;151034.94;4991995;28;20448;-82
2022/01/13 01:59:50;;;;;;;27.10;20.20;;;;;;;-1.29;100.00;151043.94;4993259;28;20950;-81
2022/01/13 02:02:27;;;;;;;30.83;21.37;;;;;;;-1.30;100.00;151041.34;4977265;28;20478;-81
2022/01/13 02:05:04;;;;;;;33.17;21.47;;;;;;;-1.29;100.00;151043.94;4987428;28;20440;-81
2022/01/13 02:07:41;;;;;;;32.30;20.77;;;;;;;-1.27;100.00;151047.75;4972028;28;20473;-81
2022/01/13 02:10:17;;;;;;;30.40;22.17;;;;;;;-1.32;100.00;151036.22;5000481;28;20460;-81
2022/01/13 02:13:01;;;;;;;28.17;21.13;;;;;;;-1.34;100.00;151031.13;4991064;28;20936;-81
2022/01/13 02:15:48;;;;;;;31.10;21.37;;;;;;;-1.34;100.00;151029.84;4990267;28;20458;-80
2022/01/13 02:18:23;;;;;;;30.80;21.97;;;;;;;-1.34;100.00;151031.13;4973593;28;20442;-81
2022/01/13 02:21:01;;;;;;;28.50;20.67;;;;;;;-1.34;100.00;151029.84;4991943;28;20433;-81
2022/01/13 02:23:39;;;;;;;28.77;20.07;;;;;;;-1.30;100.00;151040.13;4977361;28;20441;-82
2022/01/13 02:26:14;;;;;;;35.33;21.27;;;;;;;-1.31;100.00;151038.81;4991878;28;20478;-82
2022/01/13 02:28:51;;;;;;;28.13;20.50;;;;;;;-1.31;100.00;151038.81;4975842;28;20479;-81
2022/01/13 02:31:27;;;;;;;30.90;20.97;;;;;;;-1.34;100.00;151031.13;4990729;28;20442;-81
2022/01/13 02:34:03;;;;;;;27.20;19.63;;;;;;;-1.33;100.00;151032.41;4975775;28;20477;-81
2022/01/13 02:36:41;;;;;;;27.13;20.00;;;;;;;-1.38;100.00;151020.84;4989525;28;20444;-82
2022/01/13 02:39:16;;;;;;;29.60;20.60;;;;;;;-1.40;100.00;151015.72;4991820;28;20469;-82
2022/01/13 02:41:52;;;;;;;32.37;21.67;;;;;;;-1.46;100.00;151000.38;4976350;28;20894;-82
2022/01/13 02:44:27;;;;;;;34.27;21.17;;;;;;;-1.48;100.00;150995.22;4990895;28;20451;-81
2022/01/13 02:47:10;;;;;;;29.40;21.27;;;;;;;-1.43;100.00;151008.03;4991043;28;20458;-82
2022/01/13 02:49:46;;;;;;;25.97;19.33;;;;;;;-1.45;100.00;151002.91;4990764;28;20868;-81
2022/01/13 02:52:23;;;;;;;27.97;20.03;;;;;;;-1.48;100.00;150993.94;4975940;28;21153;-81
2022/01/13 02:54:59;;;;;;;29.30;20.97;;;;;;;-1.48;100.00;150993.94;4993593;28;20463;-81
2022/01/13 02:57:35;;;;;;;31.67;20.43;;;;;;;-1.51;100.00;150987.53;4991838;28;20509;-81
2022/01/13 03:00:12;;;;;;;29.37;20.70;;;;;;;-1.51;100.00;150987.53;4991654;28;20447;-81
2022/01/13 03:02:48;;;;;;;30.90;22.40;;;;;;;-1.48;100.00;150993.94;4975642;28;20436;-82
2022/01/13 03:05:24;;;;;;;30.43;19.40;;;;;;;-1.44;100.00;151005.50;4984035;28;20446;-82
2022/01/13 03:08:01;;;;;;;28.10;19.50;;;;;;;-1.43;100.00;151008.03;4972717;28;20466;-81
2022/01/13 03:10:36;;;;;;;34.63;20.47;;;;;;;-1.48;100.00;150995.22;4971017;28;20849;-81
2022/01/13 03:13:12;;;;;;;26.47;19.40;;;;;;;-1.50;100.00;150990.09;4974620;28;20453;-81
2022/01/13 03:15:47;;;;;;;27.60;19.80;;;;;;;-1.47;100.00;150996.50;4992100;28;20496;-81
2022/01/13 03:18:22;;;;;;;30.90;21.70;;;;;;;-1.45;100.00;151002.91;4990854;28;20447;-81
2022/01/13 03:20:58;;;;;;;30.10;20.90;;;;;;;-1.43;100.00;151006.78;4990624;28;20842;-82
2022/01/13 03:23:36;;;;;;;25.13;20.03;;;;;;;-1.44;100.00;151005.50;4991286;28;20445;-82
2022/01/13 03:26:12;;;;;;;31.53;21.17;;;;;;;-1.42;100.00;151009.31;4990995;28;20491;-82
2022/01/13 03:28:54;;;;;;;29.80;19.73;;;;;;;-1.39;100.00;151018.31;4990652;28;20580;-81
2022/01/13 03:31:29;;;;;;;30.63;21.13;;;;;;;-1.37;100.00;151023.44;4989224;28;20446;-82
2022/01/13 03:34:05;;;;;;;25.53;18.73;;;;;;;-1.38;100.00;151020.84;4994548;28;20444;-82
2022/01/13 03:36:41;;;;;;;31.13;20.80;;;;;;;-1.36;100.00;151026.00;4994514;28;20444;-82
2022/01/13 03:39:18;;;;;;;28.20;20.30;;;;;;;-1.33;100.00;151032.41;4982143;28;20454;-82
2022/01/13 03:41:54;;;;;;;28.87;19.27;;;;;;;-1.30;100.00;151040.13;4987980;28;20454;-83
2022/01/13 03:44:29;;;;;;;32.10;19.90;;;;;;;-1.32;100.00;151036.22;4974964;28;20944;-81
2022/01/13 03:47:05;;;;;;;25.40;19.33;;;;;;;-1.30;100.00;151041.34;4975841;28;20418;-82
2022/01/13 03:49:41;;;;;;;28.33;21.13;;;;;;;-1.28;100.00;151046.50;4990537;28;20580;-83
2022/01/13 03:52:49;;;;;;;29.13;20.93;;;;;;;-1.26;100.00;151050.34;4989391;28;20450;-83
2022/01/13 03:56:19;;;;;;;26.30;18.20;;;;;;;-1.27;100.00;151049.06;4991492;28;20449;-83
2022/01/13 03:59:36;;;;;;;31.03;20.80;;;;;;;-1.25;100.00;151054.22;4993086;28;20452;-82
2022/01/13 04:02:13;;;;;;;25.87;19.13;;;;;;;-1.23;100.00;151059.34;4994031;28;20637;-83
2022/01/13 04:04:50;;;;;;;29.43;20.77;;;;;;;-1.23;100.00;151059.34;4993644;28;20437;-83
2022/01/13 04:07:26;;;;;;;26.77;18.67;;;;;;;-1.24;100.00;151056.75;4994023;28;20441;-82
2022/01/13 04:10:31;;;;;;;27.80;19.47;;;;;;;-1.19;100.00;151067.03;4992282;28;20452;-82
2022/01/13 04:13:21;;;;;;;26.33;18.50;;;;;;;-1.17;100.00;151072.13;4967475;28;20438;-82
2022/01/13 04:15:57;;;;;;;28.43;18.53;;;;;;;-1.16;100.00;151074.66;4974688;28;20480;-82
2022/01/13 04:18:32;;;;;;;27.83;20.27;;;;;;;-1.15;100.00;151077.25;5008776;28;20441;-82
2022/01/13 04:21:08;;;;;;;29.90;20.90;;;;;;;-1.23;100.00;151058.03;4993725;28;20537;-82
2022/01/13 04:23:44;;;;;;;31.00;20.97;;;;;;;-1.25;100.00;151054.22;5007978;28;20453;-82
2022/01/13 04:26:27;;;;;;;27.17;19.97;;;;;;;-1.25;100.00;151054.22;4995060;28;20435;-82
2022/01/13 04:29:18;;;;;;;27.17;19.53;;;;;;;-1.26;100.00;151051.63;4993776;28;20481;-82
2022/01/13 04:31:54;;;;;;;29.30;19.33;;;;;;;-1.25;100.00;151054.22;4962806;28;20454;-83
2022/01/13 04:34:30;;;;;;;28.30;20.13;;;;;;;-1.23;100.00;151058.03;4973776;28;20488;-82
2022/01/13 04:37:05;;;;;;;26.37;19.70;;;;;;;-1.25;100.00;151054.22;4974237;28;20419;-83
2022/01/13 04:39:40;;;;;;;31.53;20.00;;;;;;;-1.23;100.00;151059.34;4974475;28;20458;-82
2022/01/13 04:42:16;;;;;;;29.30;19.37;;;;;;;-1.19;100.00;151067.03;5003394;28;20820;-82
2022/01/13 04:44:53;;;;;;;28.60;20.40;;;;;;;-1.19;100.00;151067.03;4992057;28;20445;-82
2022/01/13 04:47:29;;;;;;;29.93;19.03;;;;;;;-1.17;100.00;151072.13;4977490;28;20454;-83
2022/01/13 04:50:05;;;;;;;30.00;19.87;;;;;;;-1.30;100.00;151041.34;4959167;28;20472;-83
2022/01/13 04:52:40;;;;;;;29.10;19.97;;;;;;;-1.29;100.00;151043.94;4974003;28;20535;-83
2022/01/13 04:55:22;;;;;;;32.90;19.83;;;;;;;-1.27;100.00;151049.06;4974205;28;20447;-83
2022/01/13 04:57:59;;;;;;;28.60;18.17;;;;;;;-1.24;100.00;151056.75;4973735;28;20940;-83
2022/01/13 05:00:36;;;;;;;27.23;18.53;;;;;;;-1.22;100.00;151061.88;4987326;28;20459;-83
2022/01/13 05:03:12;;;;;;;30.00;20.37;;;;;;;-1.22;100.00;151061.88;4992783;28;20531;-83
2022/01/13 05:05:47;;;;;;;28.90;19.60;;;;;;;-1.19;100.00;151067.03;4993525;28;20835;-83
2022/01/13 05:08:23;;;;;;;31.57;21.13;;;;;;;-1.18;100.00;151070.84;4993947;28;20793;-83
2022/01/13 05:10:58;;;;;;;26.47;18.53;;;;;;;-1.15;100.00;151078.56;4958724;28;20458;-83
2022/01/13 05:13:34;;;;;;;27.07;18.97;;;;;;;-1.15;100.00;151077.25;4961220;28;20449;-82
2022/01/13 05:16:19;;;;;;;25.27;18.43;;;;;;;-1.13;100.00;151082.38;4976577;28;20477;-83
2022/01/13 05:18:58;;;;;;;31.50;21.17;;;;;;;-1.13;100.00;151082.38;4990699;28;20437;-82
2022/01/13 05:21:55;;;;;;;27.77;20.37;;;;;;;-1.14;100.00;151079.84;4991974;28;20842;-82
2022/01/13 05:24:30;;;;;;;26.67;19.17;;;;;;;-1.13;100.00;151082.38;4992478;28;20527;-82
2022/01/13 05:27:06;;;;;;;29.70;20.37;;;;;;;-1.14;100.00;151081.13;4998870;28;20933;-82
2022/01/13 05:29:42;;;;;;;32.73;20.00;;;;;;;-1.15;100.00;151077.25;4974920;28;20482;-82
2022/01/13 05:32:18;;;;;;;28.00;19.80;;;;;;;-1.15;100.00;151077.25;4988447;28;20474;-82
2022/01/13 05:34:54;;;;;;;28.33;20.07;;;;;;;-1.17;100.00;151072.13;4990234;28;20446;-82
2022/01/13 05:37:30;;;;;;;29.33;21.43;;;;;;;-1.20;100.00;151065.72;4995489;28;20444;-83
2022/01/13 05:40:07;;;;;;;25.83;19.53;;;;;;;-1.16;100.00;151074.66;4987626;28;20843;-82
2022/01/13 05:42:43;;;;;;;27.20;19.57;;;;;;;-1.13;100.00;151082.38;4980767;28;20442;-82
2022/01/13 05:45:21;;;;;;;27.73;19.73;;;;;;;-1.16;100.00;151075.97;4992527;28;20452;-83
2022/01/13 05:47:59;;;;;;;26.87;18.87;;;;;;;-1.16;100.00;151074.66;4991373;28;20455;-82
2022/01/13 05:50:35;;;;;;;24.57;18.53;;;;;;;-1.15;100.00;151077.25;5005350;28;20450;-82
2022/01/13 05:53:10;;;;;;;28.63;18.70;;;;;;;-1.16;100.00;151074.66;4991673;28;20524;-82
2022/01/13 05:55:46;;;;;;;26.33;19.27;;;;;;;-1.17;100.00;151072.13;4965027;28;20470;-82
2022/01/13 05:58:22;;;;;;;24.77;19.80;;;;;;;-1.18;100.00;151070.84;4978096;28;20935;-82
2022/01/13 06:00:57;;;;;;;28.00;19.63;;;;;;;-1.13;100.00;151082.38;4992736;28;20460;-82
2022/01/13 06:03:34;;;;;;;28.00;20.47;;;;;;;-1.14;100.00;151079.84;4991593;28;20535;-82
2022/01/13 06:06:11;;;;;;;22.37;17.90;;;;;;;-1.12;100.00;151084.97;4979595;28;20460;-82
2022/01/13 06:08:46;;;;;;;28.00;20.27;;;;;;;-1.11;100.00;151087.53;4987871;28;20477;-82
2022/01/13 06:11:23;;;;;;;26.90;19.43;;;;;;;-1.11;100.00;151087.53;4989535;28;20931;-82
2022/01/13 06:13:59;;;;;;;27.07;19.07;;;;;;;-1.11;100.00;151088.78;4993745;28;20464;-82
2022/01/13 06:16:35;;;;;;;25.77;19.90;;;;;;;-1.10;100.00;151090.06;4987594;28;20471;-82
2022/01/13 06:19:12;;;;;;;27.87;20.70;;;;;;;-1.08;100.00;151095.19;5001334;28;20444;-81
2022/01/13 06:21:48;;;;;;;26.17;19.57;;;;;;;-1.08;100.00;151095.19;5011774;28;20436;-82
2022/01/13 06:24:23;;;;;;;25.07;19.37;;;;;;;-1.07;100.00;151097.78;4981560;28;20453;-80
2022/01/13 06:27:00;;;;;;;26.13;19.60;;;;;;;-1.14;100.00;151081.13;4991162;28;20444;-82
2022/01/13 06:29:36;;;;;;;30.00;20.20;;;;;;;-1.19;100.00;151067.03;4990458;28;20590;-83
2022/01/13 06:32:12;;;;;;;29.83;19.47;;;;;;;-1.16;100.00;151075.97;4989268;28;20447;-81
2022/01/13 06:34:49;;;;;;;27.47;20.63;;;;;;;-1.12;100.00;151086.25;4988210;28;20457;-82
2022/01/13 06:37:24;;;;;;;28.20;19.77;;;;;;;-1.08;100.00;151095.19;4991010;28;20493;-82
2022/01/13 06:40:02;;;;;;;29.67;20.60;;;;;;;-1.06;100.00;151100.34;4990891;28;20799;-82
2022/01/13 06:42:38;;;;;;;29.57;21.10;;;;;;;-1.05;100.00;151102.88;4991399;28;20434;-82
2022/01/13 06:45:14;;;;;;;29.53;20.47;;;;;;;-1.05;100.00;151104.19;4974930;28;20450;-82
2022/01/13 06:47:50;;;;;;;26.30;18.63;;;;;;;-0.96;100.00;151127.28;4988342;28;20887;-82
2022/01/13 06:50:28;;;;;;;27.87;18.57;;;;;;;-1.07;100.00;151099.06;4972525;28;20472;-83
2022/01/13 06:53:03;;;;;;;31.87;23.60;;;;;;;-1.13;100.00;151082.38;4989177;28;20445;-82
2022/01/13 06:55:39;;;;;;;28.20;21.00;;;;;;;-1.18;100.00;151070.84;4988068;28;20458;-83
2022/01/13 06:58:15;;;;;;;27.80;19.80;;;;;;;-1.16;100.00;151074.66;4989919;28;20456;-83
2022/01/13 07:00:50;;;;;;;30.37;19.77;;;;;;;-1.11;100.00;151087.53;4975074;28;20450;-82
2022/01/13 07:03:26;;;;;;;29.20;20.33;;;;;;;-1.17;100.00;151072.13;4989200;28;20452;-82
2022/01/13 07:06:03;;;;;;;26.13;19.13;;;;;;;-1.18;100.00;151069.56;4973186;28;20437;-82
2022/01/13 07:08:38;;;;;;;27.30;20.00;;;;;;;-1.17;100.00;151072.13;4992372;28;20439;-82
2022/01/13 07:11:14;;;;;;;28.47;20.27;;;;;;;-1.19;100.00;151068.28;4992696;28;20449;-82
2022/01/13 07:13:50;;;;;;;25.77;19.73;;;;;;;-1.25;100.00;151054.22;4993939;28;20449;-82
2022/01/13 07:16:26;;;;;;;28.97;20.27;;;;;;;-1.26;100.00;151051.63;5007988;28;20464;-82
2022/01/13 07:19:02;;;;;;;28.30;20.10;;;;;;;-1.24;100.00;151055.44;4994854;28;20936;-83
2022/01/13 07:21:40;;;;;;;29.87;20.13;;;;;;;-1.26;100.00;151051.63;4969772;28;20459;-83
2022/01/13 07:24:15;;;;;;;39.83;21.20;;;;;;;-1.26;100.00;151050.34;4991112;28;20445;-82
2022/01/13 07:26:51;;;;;;;32.00;21.60;;;;;;;-1.26;100.00;151050.34;4993258;28;20451;-82
2022/01/13 07:29:27;;;;;;;31.07;20.70;;;;;;;-1.30;100.00;151041.34;4993460;28;20945;-83
2022/01/13 07:32:03;;;;;;;30.57;20.50;;;;;;;-1.38;100.00;151020.84;4994789;28;20429;-83
2022/01/13 07:34:38;;;;;;;27.00;20.00;;;;;;;-1.47;100.00;150997.81;4991040;28;20476;-83
2022/01/13 07:37:15;;;;;;;24.83;18.50;;;;;;;-1.55;100.00;150977.28;4988453;28;20453;-83
2022/01/13 07:39:51;;;;;;;30.90;21.00;;;;;;;-1.53;100.00;150982.41;4993030;28;20492;-83
2022/01/13 07:42:26;;;;;;;28.00;19.27;;;;;;;-1.51;100.00;150986.28;5004362;28;20943;-83
2022/01/13 07:45:02;;;;;;;29.43;19.07;;;;;;;-1.52;100.00;150983.72;4977789;28;20872;-82
2022/01/13 07:47:38;;;;;;;31.73;19.53;;;;;;;-1.55;100.00;150977.28;4987692;28;20445;-83
2022/01/13 07:50:14;;;;;;;27.43;19.47;;;;;;;-1.57;100.00;150970.91;4975501;28;20972;-83
2022/01/13 07:52:51;;;;;;;29.50;18.93;;;;;;;-1.56;100.00;150974.72;4993556;28;20445;-83
2022/01/13 07:55:27;;;;;;;27.40;19.70;;;;;;;-1.52;100.00;150983.72;4979019;28;20442;-83
2022/01/13 07:58:02;;;;;;;28.40;17.63;;;;;;;-1.39;100.00;151018.31;4991579;28;20931;-83
2022/01/13 08:00:38;;;;;;;26.10;17.37;;;;;;;-1.31;100.00;151037.53;4995402;28;20457;-83
2022/01/13 08:03:13;;;;;;;21.87;16.67;;;;;;;-1.22;100.00;151061.88;4995885;28;20841;-82
2022/01/13 08:05:49;;;;;;;20.33;12.50;;;;;;;-1.04;100.00;151105.47;4980149;28;20441;-82
2022/01/13 08:08:26;;;;;;;24.70;15.00;;;;;;;-0.98;100.00;151122.09;4983921;28;20441;-81
2022/01/13 08:11:02;;;;;;;18.33;11.93;;;;;;;-0.92;100.00;151136.22;4968131;28;20471;-81
2022/01/13 08:13:37;;;;;;;19.40;12.70;;;;;;;-0.86;100.00;151151.63;4991011;28;20458;-81
2022/01/13 08:16:15;;;;;;;19.30;13.17;;;;;;;-0.94;100.00;151131.09;4973681;28;20497;-82
2022/01/13 08:21:44;;;;;;;18.07;13.17;;;;;;;-0.77;100.00;151174.72;4993683;28;20445;-82
2022/01/13 08:24:21;;;;;;;19.73;13.30;;;;;;;-0.80;100.00;151167.00;4993528;28;20766;-82
2022/01/13 08:26:57;;;;;;;23.60;14.70;;;;;;;-0.88;100.00;151147.78;4989315;28;20446;-83
2022/01/13 08:29:33;;;;;;;26.27;15.50;;;;;;;-0.99;100.00;151118.28;4973073;28;20501;-82
2022/01/13 08:32:08;;;;;;;26.90;17.37;;;;;;;-0.96;100.00;151125.97;4959056;28;20444;-82
2022/01/13 08:34:43;;;;;;;27.07;19.23;;;;;;;-0.81;100.00;151164.44;4986014;28;20481;-83
2022/01/13 08:37:19;;;;;;;29.20;18.77;;;;;;;-0.71;100.00;151190.06;5004698;28;20441;-83
2022/01/13 08:39:56;;;;;;;28.27;18.83;;;;;;;-0.80;100.00;151167.00;4993679;28;20453;-83
2022/01/13 08:42:33;;;;;;;27.20;17.33;;;;;;;-0.59;100.00;151220.88;4989680;28;20445;-83
2022/01/13 08:45:12;;;;;;;28.03;18.43;;;;;;;-0.57;100.00;151226.00;4979256;28;20468;-83
2022/01/13 08:47:47;;;;;;;24.23;18.17;;;;;;;-0.54;100.00;151232.41;4977333;28;20445;-83
2022/01/13 08:50:23;;;;;;;30.47;18.67;;;;;;;-0.54;100.00;151233.69;4992767;28;20488;-83
2022/01/13 08:52:59;;;;;;;27.50;19.27;;;;;;;-0.49;99.67;151245.22;4993329;28;20473;-83
2022/01/13 08:55:36;;;;;;;28.03;19.83;;;;;;;-0.56;98.50;151228.59;5009237;28;20448;-83
2022/01/13 08:58:11;;;;;;;28.13;19.73;;;;;;;-0.56;96.93;151228.59;4994034;28;20442;-82
2022/01/13 09:00:47;;;;;;;29.33;20.80;;;;;;;-0.52;96.92;151237.53;5003659;28;20450;-82
2022/01/13 09:03:23;;;;;;;27.93;20.30;;;;;;;-0.48;97.30;151249.09;4991929;28;20454;-83
2022/01/13 09:05:58;;;;;;;27.50;18.40;;;;;;;-0.51;95.48;151240.09;4991319;28;20436;-82
2022/01/13 09:08:34;;;;;;;27.67;17.60;;;;;;;-0.54;96.20;151233.69;5005758;28;20820;-83
2022/01/13 09:11:11;;;;;;;28.73;19.97;;;;;;;-0.47;95.57;151251.63;4992373;28;20504;-83
2022/01/13 09:13:46;;;;;;;32.03;19.70;;;;;;;-0.46;95.07;151252.94;4993018;28;20441;-83
2022/01/13 09:16:24;;;;;;;30.27;20.30;;;;;;;-0.45;95.27;151255.50;5007014;28;20480;-83
2022/01/13 09:19:07;;;;;;;27.70;21.43;;;;;;;-0.40;94.53;151269.63;5002734;28;20931;-83
2022/01/13 09:21:44;;;;;;;31.40;21.40;;;;;;;-0.49;93.83;151246.53;4991255;28;20503;-83
2022/01/13 09:24:21;;;;;;;29.17;19.77;;;;;;;-0.34;93.47;151284.97;4991263;28;20462;-83
2022/01/13 09:26:58;;;;;;;24.80;17.60;;;;;;;-0.42;92.85;151264.47;4983471;28;20560;-82
2022/01/13 09:29:34;;;;;;;25.77;18.70;;;;;;;-0.35;93.95;151282.44;4981070;28;20474;-83
2022/01/13 09:32:10;;;;;;;24.87;19.80;;;;;;;-0.36;93.69;151279.88;4995633;28;20440;-82
2022/01/13 09:34:46;;;;;;;22.77;16.27;;;;;;;-0.25;93.76;151308.09;4987566;28;20469;-82
2022/01/13 09:37:24;;;;;;;28.23;17.93;;;;;;;-0.26;95.25;151305.50;5000694;28;20443;-82
2022/01/13 09:39:59;;;;;;;19.60;14.47;;;;;;;-0.18;94.82;151324.75;4991740;28;20458;-82
2022/01/13 09:42:39;;;;;;;20.47;14.30;;;;;;;-0.22;93.85;151314.50;4996341;28;20948;-82
2022/01/13 09:45:16;;;;;;;25.17;16.87;;;;;;;-0.16;95.06;151329.91;4991796;28;20453;-82
2022/01/13 09:47:51;;;;;;;23.57;15.80;;;;;;;-0.10;94.80;151345.28;4991570;28;20473;-83
2022/01/13 09:50:27;;;;;;;25.27;16.37;;;;;;;-0.11;94.15;151344.00;4992921;28;20476;-83
2022/01/13 09:53:03;;;;;;;25.53;16.80;;;;;;;-0.17;93.92;151328.63;4983139;28;20799;-83
2022/01/13 09:55:38;;;;;;;20.03;14.17;;;;;;;-0.20;93.97;151320.91;4976570;28;20464;-83
2022/01/13 09:58:16;;;;;;;19.97;13.90;;;;;;;-0.11;95.04;151344.00;4991387;28;20430;-83
2022/01/13 10:00:52;;;;;;;24.90;15.33;;;;;;;-0.23;93.70;151313.22;4990996;28;20438;-83
2022/01/13 10:03:27;;;;;;;23.00;14.50;;;;;;;-0.25;94.49;151306.81;4986698;28;20445;-83
2022/01/13 10:06:09;;;;;;;21.23;15.57;;;;;;;-0.18;94.61;151326.03;4957607;28;20442;-83
2022/01/13 10:08:46;;;;;;;20.40;13.30;;;;;;;-0.13;94.22;151338.88;4989814;28;20778;-83
2022/01/13 10:11:27;;;;;;;19.67;14.03;;;;;;;-0.30;93.98;151295.28;4990839;28;20465;-84
2022/01/13 10:16:22;;;;;;;24.30;15.97;;;;;;;-0.30;94.88;151293.97;4989153;28;20458;-83
2022/01/13 10:17:09;;;;;;;17.53;13.30;;;;;;;-0.12;95.00;151341.44;4990946;28;20473;-84
2022/01/13 10:19:46;;;;;;;20.00;12.50;;;;;;;0.05;94.96;151383.81;4991409;28;20441;-83
2022/01/13 10:22:23;;;;;;;17.60;11.80;;;;;;;0.04;93.57;151379.94;4989305;28;20444;-83
2022/01/13 10:24:59;;;;;;;16.77;11.50;;;;;;;0.13;94.45;151403.06;4990957;28;20508;-83
2022/01/13 10:27:37;;;;;;;17.70;12.27;;;;;;;-0.04;93.86;151361.97;4991302;28;20820;-83
2022/01/13 10:30:17;;;;;;;20.53;13.73;;;;;;;-0.14;94.46;151336.34;4976151;28;20468;-83
2022/01/13 10:32:53;;;;;;;19.87;13.90;;;;;;;-0.15;94.83;151332.47;4991902;28;20446;-83
2022/01/13 10:35:29;;;;;;;19.00;13.73;;;;;;;-0.16;94.49;151331.16;4991630;28;21082;-83
2022/01/13 10:38:05;;;;;;;18.47;12.97;;;;;;;-0.09;94.88;151349.16;4990786;28;20802;-83
2022/01/13 10:40:41;;;;;;;19.60;13.30;;;;;;;-0.13;95.38;151338.88;4987828;28;20830;-83
2022/01/13 10:43:22;;;;;;;21.90;14.73;;;;;;;0.02;94.72;151374.81;4992086;28;20428;-83
2022/01/13 10:45:59;;;;;;;18.53;13.57;;;;;;;0.05;95.72;151382.50;4991622;28;20443;-83
2022/01/13 10:48:36;;;;;;;21.93;14.73;;;;;;;0.17;95.45;151414.59;4987548;28;20436;-83
2022/01/13 10:51:12;;;;;;;20.10;13.43;;;;;;;0.22;95.39;151427.41;4978833;28;20467;-82
2022/01/13 10:53:48;;;;;;;21.30;14.50;;;;;;;0.21;94.55;151424.88;4971158;28;20437;-83
2022/01/13 10:56:23;;;;;;;17.70;13.70;;;;;;;0.27;93.61;151440.25;4973271;28;20470;-83
2022/01/13 10:59:01;;;;;;;20.10;13.57;;;;;;;0.27;93.37;151438.97;4979709;28;20935;-83
2022/01/13 11:01:38;;;;;;;17.30;12.90;;;;;;;0.22;93.96;151426.13;4997441;28;20445;-82
2022/01/13 11:04:15;;;;;;;16.77;12.90;;;;;;;0.22;93.26;151427.41;4996706;28;20539;-83
2022/01/13 11:07:14;;;;;;;24.03;13.40;;;;;;;0.21;94.20;151423.59;4979002;28;20943;-83
2022/01/13 11:09:53;;;;;;;18.67;13.40;;;;;;;0.26;94.88;151437.72;4992045;28;20462;-82
2022/01/13 11:12:31;;;;;;;18.97;13.77;;;;;;;0.39;94.11;151471.09;4995185;28;20851;-82
2022/01/13 11:15:12;;;;;;;18.83;13.07;;;;;;;0.42;93.95;151478.78;4992266;28;20453;-83
2022/01/13 11:17:49;;;;;;;20.07;15.13;;;;;;;0.50;94.76;151498.03;4994390;28;20466;-82
2022/01/13 11:20:25;;;;;;;22.30;16.17;;;;;;;0.59;92.72;151521.13;4984501;28;20565;-82
2022/01/13 11:23:01;;;;;;;20.43;15.47;;;;;;;0.60;92.27;151523.72;4994543;28;20449;-82
2022/01/13 11:25:37;;;;;;;19.83;14.93;;;;;;;0.61;92.88;151526.25;4994275;28;20635;-82
2022/01/13 11:28:13;;;;;;;21.50;15.77;;;;;;;0.64;91.92;151533.94;4994892;28;20804;-82
2022/01/13 11:30:50;;;;;;;21.40;15.03;;;;;;;0.64;92.42;151533.94;4968189;28;20572;-82
2022/01/13 11:33:28;;;;;;;17.57;13.70;;;;;;;0.72;91.78;151553.22;4989958;28;20504;-82
2022/01/13 11:36:05;;;;;;;22.30;15.40;;;;;;;0.68;92.03;151542.97;4975670;28;20453;-82
2022/01/13 11:38:54;;;;;;;21.30;16.70;;;;;;;0.86;91.18;151589.19;4975897;28;20455;-82
2022/01/13 11:41:30;;;;;;;21.80;16.40;;;;;;;0.83;91.06;151582.75;4984336;28;20865;-82
2022/01/13 11:44:13;;;;;;;20.37;15.60;;;;;;;0.85;91.01;151586.63;4993839;28;20522;-82
2022/01/13 11:46:50;;;;;;;20.23;15.17;;;;;;;0.86;90.44;151589.19;4977722;28;20792;-82
2022/01/13 11:49:39;;;;;;;20.90;15.60;;;;;;;0.96;90.77;151614.84;4987059;28;20457;-82
2022/01/13 11:52:31;;;;;;;21.97;15.87;;;;;;;1.08;90.08;151647.00;4993003;28;20433;-81
2022/01/13 11:55:20;;;;;;;20.20;15.37;;;;;;;1.03;90.51;151632.88;4989737;28;20445;-82